sensor_id;sensor_type;location;lat;lon;timestamp;P1;durP1;ratioP1;P2;durP2;ratioP2
20593;SDS011;10455;48.732;10.266;2023-03-07T00:02:26;17.73;;;12.57;;
20593;SDS011;10455;48.732;10.266;2023-03-07T00:07:28;18.63;;;13.27;;
20593;SDS011;10455;48.732;10.266;2023-03-07T00:12:32;16.40;;;12.33;;
20593;SDS011;10455;48.732;10.266;2023-03-07T00:17:34;16.57;;;12.47;;
20593;SDS011;10455;48.732;10.266;2023-03-07T00:22:36;19.27;;;13.13;;
20593;SDS011;10455;48.732;10.266;2023-03-07T00:27:40;17.67;;;12.73;;
20593;SDS011;10455;48.732;10.266;2023-03-07T00:32:42;16.40;;;11.90;;
20593;SDS011;10455;48.732;10.266;2023-03-07T00:37:44;17.43;;;12.37;;
20593;SDS011;10455;48.732;10.266;2023-03-07T00:42:47;17.97;;;12.43;;
20593;SDS011;10455;48.732;10.266;2023-03-07T00:47:49;17.07;;;12.17;;
20593;SDS011;10455;48.732;10.266;2023-03-07T00:52:51;15.43;;;11.60;;
20593;SDS011;10455;48.732;10.266;2023-03-07T00:57:54;15.90;;;12.07;;
20593;SDS011;10455;48.732;10.266;2023-03-07T01:02:56;17.43;;;11.90;;
20593;SDS011;10455;48.732;10.266;2023-03-07T01:08:00;18.80;;;12.27;;
20593;SDS011;10455;48.732;10.266;2023-03-07T01:13:04;14.73;;;11.13;;
20593;SDS011;10455;48.732;10.266;2023-03-07T01:18:06;16.27;;;12.00;;
20593;SDS011;10455;48.732;10.266;2023-03-07T01:23:09;14.67;;;11.73;;
20593;SDS011;10455;48.732;10.266;2023-03-07T01:28:12;15.87;;;11.63;;
20593;SDS011;10455;48.732;10.266;2023-03-07T01:33:14;16.27;;;12.07;;
20593;SDS011;10455;48.732;10.266;2023-03-07T01:38:16;15.97;;;11.17;;
20593;SDS011;10455;48.732;10.266;2023-03-07T01:43:23;20.20;;;11.80;;
20593;SDS011;10455;48.732;10.266;2023-03-07T01:48:26;14.37;;;10.80;;
20593;SDS011;10455;48.732;10.266;2023-03-07T01:53:28;16.63;;;11.13;;
20593;SDS011;10455;48.732;10.266;2023-03-07T01:58:31;16.23;;;11.43;;
20593;SDS011;10455;48.732;10.266;2023-03-07T02:03:36;15.27;;;11.70;;
20593;SDS011;10455;48.732;10.266;2023-03-07T02:08:44;20.10;;;12.67;;
20593;SDS011;10455;48.732;10.266;2023-03-07T02:13:51;17.43;;;11.63;;
20593;SDS011;10455;48.732;10.266;2023-03-07T02:18:53;17.77;;;11.97;;
20593;SDS011;10455;48.732;10.266;2023-03-07T02:23:56;16.57;;;11.47;;
20593;SDS011;10455;48.732;10.266;2023-03-07T02:29:03;16.93;;;12.43;;
20593;SDS011;10455;48.732;10.266;2023-03-07T02:34:16;18.40;;;11.73;;
20593;SDS011;10455;48.732;10.266;2023-03-07T02:39:22;17.80;;;11.20;;
20593;SDS011;10455;48.732;10.266;2023-03-07T02:44:30;16.37;;;11.30;;
20593;SDS011;10455;48.732;10.266;2023-03-07T02:49:32;15.33;;;11.33;;
20593;SDS011;10455;48.732;10.266;2023-03-07T02:54:34;15.87;;;11.50;;
20593;SDS011;10455;48.732;10.266;2023-03-07T02:59:37;17.77;;;11.70;;
20593;SDS011;10455;48.732;10.266;2023-03-07T03:04:39;19.60;;;12.03;;
20593;SDS011;10455;48.732;10.266;2023-03-07T03:09:41;16.53;;;12.43;;
20593;SDS011;10455;48.732;10.266;2023-03-07T03:14:44;19.40;;;11.90;;
20593;SDS011;10455;48.732;10.266;2023-03-07T03:19:46;17.50;;;12.30;;
20593;SDS011;10455;48.732;10.266;2023-03-07T03:24:48;15.90;;;12.07;;
20593;SDS011;10455;48.732;10.266;2023-03-07T03:29:53;15.30;;;11.57;;
20593;SDS011;10455;48.732;10.266;2023-03-07T03:34:55;17.77;;;12.87;;
20593;SDS011;10455;48.732;10.266;2023-03-07T03:39:57;19.47;;;13.60;;
20593;SDS011;10455;48.732;10.266;2023-03-07T03:45:00;19.63;;;13.70;;
20593;SDS011;10455;48.732;10.266;2023-03-07T03:50:02;20.30;;;13.60;;
20593;SDS011;10455;48.732;10.266;2023-03-07T03:55:05;19.87;;;14.13;;
20593;SDS011;10455;48.732;10.266;2023-03-07T04:00:09;20.13;;;14.27;;
20593;SDS011;10455;48.732;10.266;2023-03-07T04:05:15;19.90;;;12.77;;
20593;SDS011;10455;48.732;10.266;2023-03-07T04:10:17;18.73;;;13.40;;
20593;SDS011;10455;48.732;10.266;2023-03-07T04:15:20;19.73;;;14.17;;
20593;SDS011;10455;48.732;10.266;2023-03-07T04:20:22;22.30;;;14.20;;
20593;SDS011;10455;48.732;10.266;2023-03-07T04:25:24;18.30;;;13.37;;
20593;SDS011;10455;48.732;10.266;2023-03-07T04:30:27;20.30;;;14.67;;
20593;SDS011;10455;48.732;10.266;2023-03-07T04:35:29;20.30;;;14.23;;
20593;SDS011;10455;48.732;10.266;2023-03-07T04:40:31;21.37;;;14.00;;
20593;SDS011;10455;48.732;10.266;2023-03-07T04:45:34;19.57;;;14.37;;
20593;SDS011;10455;48.732;10.266;2023-03-07T04:50:37;21.73;;;14.70;;
20593;SDS011;10455;48.732;10.266;2023-03-07T04:55:39;19.77;;;14.30;;
20593;SDS011;10455;48.732;10.266;2023-03-07T05:00:42;21.20;;;15.03;;
20593;SDS011;10455;48.732;10.266;2023-03-07T05:05:45;23.80;;;14.93;;
20593;SDS011;10455;48.732;10.266;2023-03-07T05:10:47;20.83;;;15.67;;
20593;SDS011;10455;48.732;10.266;2023-03-07T05:15:51;20.63;;;14.40;;
20593;SDS011;10455;48.732;10.266;2023-03-07T05:20:54;21.87;;;14.67;;
20593;SDS011;10455;48.732;10.266;2023-03-07T05:25:56;20.93;;;14.57;;
20593;SDS011;10455;48.732;10.266;2023-03-07T05:30:59;19.33;;;14.03;;
20593;SDS011;10455;48.732;10.266;2023-03-07T05:36:02;19.77;;;13.60;;
20593;SDS011;10455;48.732;10.266;2023-03-07T05:41:04;24.07;;;14.97;;
20593;SDS011;10455;48.732;10.266;2023-03-07T05:46:07;19.60;;;13.70;;
20593;SDS011;10455;48.732;10.266;2023-03-07T05:51:09;18.20;;;13.73;;
20593;SDS011;10455;48.732;10.266;2023-03-07T05:56:11;18.23;;;12.70;;
20593;SDS011;10455;48.732;10.266;2023-03-07T06:01:14;18.30;;;12.97;;
20593;SDS011;10455;48.732;10.266;2023-03-07T06:06:16;20.33;;;13.10;;
20593;SDS011;10455;48.732;10.266;2023-03-07T06:11:18;16.77;;;12.63;;
20593;SDS011;10455;48.732;10.266;2023-03-07T06:16:21;16.27;;;12.03;;
20593;SDS011;10455;48.732;10.266;2023-03-07T06:21:23;16.70;;;12.40;;
20593;SDS011;10455;48.732;10.266;2023-03-07T06:26:25;16.47;;;12.70;;
20593;SDS011;10455;48.732;10.266;2023-03-07T06:31:28;18.57;;;12.13;;
20593;SDS011;10455;48.732;10.266;2023-03-07T06:36:30;17.23;;;13.00;;
20593;SDS011;10455;48.732;10.266;2023-03-07T06:41:32;17.03;;;11.67;;
20593;SDS011;10455;48.732;10.266;2023-03-07T06:46:35;16.97;;;12.07;;
20593;SDS011;10455;48.732;10.266;2023-03-07T06:51:37;16.60;;;12.20;;
20593;SDS011;10455;48.732;10.266;2023-03-07T06:56:39;16.60;;;12.37;;
20593;SDS011;10455;48.732;10.266;2023-03-07T07:01:42;16.53;;;12.73;;
20593;SDS011;10455;48.732;10.266;2023-03-07T07:06:44;21.37;;;13.23;;
20593;SDS011;10455;48.732;10.266;2023-03-07T07:11:46;16.77;;;12.40;;
20593;SDS011;10455;48.732;10.266;2023-03-07T07:16:49;19.30;;;13.53;;
20593;SDS011;10455;48.732;10.266;2023-03-07T07:21:51;17.40;;;12.00;;
20593;SDS011;10455;48.732;10.266;2023-03-07T07:26:53;16.33;;;12.07;;
20593;SDS011;10455;48.732;10.266;2023-03-07T07:31:57;15.30;;;11.67;;
20593;SDS011;10455;48.732;10.266;2023-03-07T07:36:59;17.40;;;12.13;;
20593;SDS011;10455;48.732;10.266;2023-03-07T07:42:00;18.13;;;11.10;;
20593;SDS011;10455;48.732;10.266;2023-03-07T07:47:04;16.20;;;11.90;;
20593;SDS011;10455;48.732;10.266;2023-03-07T07:52:06;13.27;;;10.67;;
20593;SDS011;10455;48.732;10.266;2023-03-07T07:57:08;15.13;;;10.87;;
20593;SDS011;10455;48.732;10.266;2023-03-07T08:02:11;11.97;;;10.13;;
20593;SDS011;10455;48.732;10.266;2023-03-07T08:07:13;15.07;;;10.83;;
20593;SDS011;10455;48.732;10.266;2023-03-07T08:12:15;14.40;;;11.10;;
20593;SDS011;10455;48.732;10.266;2023-03-07T08:17:18;15.20;;;10.63;;
20593;SDS011;10455;48.732;10.266;2023-03-07T08:22:20;11.87;;;9.93;;
20593;SDS011;10455;48.732;10.266;2023-03-07T08:27:22;14.03;;;10.77;;
20593;SDS011;10455;48.732;10.266;2023-03-07T08:32:26;11.73;;;9.77;;
20593;SDS011;10455;48.732;10.266;2023-03-07T08:37:28;13.53;;;10.47;;
20593;SDS011;10455;48.732;10.266;2023-03-07T08:42:30;11.37;;;10.13;;
20593;SDS011;10455;48.732;10.266;2023-03-07T08:47:33;11.70;;;10.47;;
20593;SDS011;10455;48.732;10.266;2023-03-07T08:52:35;12.33;;;9.77;;
20593;SDS011;10455;48.732;10.266;2023-03-07T08:57:37;13.87;;;10.20;;
20593;SDS011;10455;48.732;10.266;2023-03-07T09:02:40;11.67;;;9.83;;
20593;SDS011;10455;48.732;10.266;2023-03-07T09:07:42;12.13;;;10.17;;
20593;SDS011;10455;48.732;10.266;2023-03-07T09:12:44;11.33;;;10.10;;
20593;SDS011;10455;48.732;10.266;2023-03-07T09:17:47;13.23;;;10.47;;
20593;SDS011;10455;48.732;10.266;2023-03-07T09:22:49;10.67;;;9.57;;
20593;SDS011;10455;48.732;10.266;2023-03-07T09:27:53;11.30;;;10.13;;
20593;SDS011;10455;48.732;10.266;2023-03-07T09:32:56;11.20;;;10.00;;
20593;SDS011;10455;48.732;10.266;2023-03-07T09:37:58;10.07;;;8.97;;
20593;SDS011;10455;48.732;10.266;2023-03-07T09:43:02;11.40;;;9.83;;
20593;SDS011;10455;48.732;10.266;2023-03-07T09:48:24;11.60;;;9.60;;
20593;SDS011;10455;48.732;10.266;2023-03-07T09:53:45;9.37;;;8.37;;
20593;SDS011;10455;48.732;10.266;2023-03-07T09:58:53;11.67;;;8.43;;
20593;SDS011;10455;48.732;10.266;2023-03-07T10:04:03;9.70;;;8.50;;
20593;SDS011;10455;48.732;10.266;2023-03-07T10:09:09;8.60;;;7.70;;
20593;SDS011;10455;48.732;10.266;2023-03-07T10:14:18;10.03;;;8.20;;
20593;SDS011;10455;48.732;10.266;2023-03-07T10:19:34;10.13;;;8.57;;
20593;SDS011;10455;48.732;10.266;2023-03-07T10:24:44;10.60;;;8.47;;
20593;SDS011;10455;48.732;10.266;2023-03-07T10:30:00;12.03;;;8.20;;
20593;SDS011;10455;48.732;10.266;2023-03-07T10:35:15;9.53;;;8.10;;
20593;SDS011;10455;48.732;10.266;2023-03-07T10:40:23;10.83;;;7.83;;
20593;SDS011;10455;48.732;10.266;2023-03-07T10:45:28;9.17;;;7.60;;
20593;SDS011;10455;48.732;10.266;2023-03-07T10:50:35;8.77;;;7.63;;
20593;SDS011;10455;48.732;10.266;2023-03-07T10:55:41;10.17;;;7.90;;
20593;SDS011;10455;48.732;10.266;2023-03-07T11:00:47;11.03;;;7.40;;
20593;SDS011;10455;48.732;10.266;2023-03-07T11:06:04;9.47;;;7.30;;
20593;SDS011;10455;48.732;10.266;2023-03-07T11:11:30;8.40;;;7.60;;
20593;SDS011;10455;48.732;10.266;2023-03-07T11:16:32;7.90;;;7.10;;
20593;SDS011;10455;48.732;10.266;2023-03-07T11:21:41;8.30;;;7.50;;
20593;SDS011;10455;48.732;10.266;2023-03-07T11:26:53;10.30;;;8.33;;
20593;SDS011;10455;48.732;10.266;2023-03-07T11:31:58;7.13;;;6.43;;
20593;SDS011;10455;48.732;10.266;2023-03-07T11:37:19;8.27;;;7.10;;
20593;SDS011;10455;48.732;10.266;2023-03-07T11:42:31;8.30;;;7.50;;
20593;SDS011;10455;48.732;10.266;2023-03-07T11:47:37;8.10;;;7.30;;
20593;SDS011;10455;48.732;10.266;2023-03-07T11:52:59;10.50;;;7.00;;
20593;SDS011;10455;48.732;10.266;2023-03-07T11:58:30;7.90;;;7.10;;
20593;SDS011;10455;48.732;10.266;2023-03-07T12:09:24;9.30;;;7.80;;
20593;SDS011;10455;48.732;10.266;2023-03-07T12:14:38;10.23;;;8.00;;
20593;SDS011;10455;48.732;10.266;2023-03-07T12:19:53;10.43;;;8.03;;
20593;SDS011;10455;48.732;10.266;2023-03-07T12:25:20;9.70;;;8.10;;
20593;SDS011;10455;48.732;10.266;2023-03-07T12:30:26;10.70;;;8.40;;
20593;SDS011;10455;48.732;10.266;2023-03-07T12:35:36;9.15;;;7.95;;
20593;SDS011;10455;48.732;10.266;2023-03-07T12:40:46;9.93;;;8.23;;
20593;SDS011;10455;48.732;10.266;2023-03-07T12:45:52;8.80;;;7.90;;
20593;SDS011;10455;48.732;10.266;2023-03-07T12:51:03;9.65;;;8.00;;
20593;SDS011;10455;48.732;10.266;2023-03-07T12:56:11;8.87;;;7.80;;
20593;SDS011;10455;48.732;10.266;2023-03-07T13:01:20;8.77;;;7.55;;
20593;SDS011;10455;48.732;10.266;2023-03-07T13:06:26;9.13;;;8.23;;
20593;SDS011;10455;48.732;10.266;2023-03-07T13:11:31;10.20;;;8.38;;
20593;SDS011;10455;48.732;10.266;2023-03-07T13:16:41;9.55;;;8.43;;
20593;SDS011;10455;48.732;10.266;2023-03-07T13:21:44;10.85;;;8.65;;
20593;SDS011;10455;48.732;10.266;2023-03-07T13:26:47;17.80;;;13.85;;
20593;SDS011;10455;48.732;10.266;2023-03-07T13:31:54;14.32;;;9.90;;
20593;SDS011;10455;48.732;10.266;2023-03-07T13:36:56;10.68;;;9.27;;
20593;SDS011;10455;48.732;10.266;2023-03-07T13:41:59;10.55;;;9.40;;
20593;SDS011;10455;48.732;10.266;2023-03-07T13:47:01;9.52;;;8.60;;
20593;SDS011;10455;48.732;10.266;2023-03-07T13:57:44;10.70;;;9.00;;
20593;SDS011;10455;48.732;10.266;2023-03-07T14:02:47;10.50;;;9.43;;
20593;SDS011;10455;48.732;10.266;2023-03-07T14:07:49;11.93;;;9.90;;
20593;SDS011;10455;48.732;10.266;2023-03-07T14:12:59;10.93;;;9.50;;
20593;SDS011;10455;48.732;10.266;2023-03-07T14:18:23;12.37;;;9.67;;
20593;SDS011;10455;48.732;10.266;2023-03-07T14:23:44;12.17;;;9.77;;
20593;SDS011;10455;48.732;10.266;2023-03-07T14:28:58;11.90;;;9.80;;
20593;SDS011;10455;48.732;10.266;2023-03-07T14:34:01;10.80;;;9.30;;
20593;SDS011;10455;48.732;10.266;2023-03-07T14:39:15;9.00;;;7.93;;
20593;SDS011;10455;48.732;10.266;2023-03-07T14:44:25;9.65;;;8.63;;
20593;SDS011;10455;48.732;10.266;2023-03-07T14:49:41;8.93;;;7.38;;
20593;SDS011;10455;48.732;10.266;2023-03-07T14:54:51;22.92;;;14.00;;
20593;SDS011;10455;48.732;10.266;2023-03-07T15:00:12;10.20;;;8.30;;
20593;SDS011;10455;48.732;10.266;2023-03-07T15:05:23;8.43;;;7.17;;
20593;SDS011;10455;48.732;10.266;2023-03-07T15:10:27;7.67;;;6.63;;
20593;SDS011;10455;48.732;10.266;2023-03-07T15:15:34;7.33;;;6.67;;
20593;SDS011;10455;48.732;10.266;2023-03-07T15:20:40;8.13;;;7.20;;
20593;SDS011;10455;48.732;10.266;2023-03-07T15:25:44;8.63;;;7.73;;
20593;SDS011;10455;48.732;10.266;2023-03-07T15:30:48;9.63;;;7.87;;
20593;SDS011;10455;48.732;10.266;2023-03-07T15:36:05;8.73;;;6.60;;
20593;SDS011;10455;48.732;10.266;2023-03-07T15:41:29;8.17;;;7.00;;
20593;SDS011;10455;48.732;10.266;2023-03-07T15:46:34;7.90;;;6.60;;
20593;SDS011;10455;48.732;10.266;2023-03-07T15:51:38;6.77;;;6.03;;
20593;SDS011;10455;48.732;10.266;2023-03-07T15:56:40;7.03;;;6.30;;
20593;SDS011;10455;48.732;10.266;2023-03-07T16:01:46;6.07;;;5.47;;
20593;SDS011;10455;48.732;10.266;2023-03-07T16:06:47;7.07;;;5.60;;
20593;SDS011;10455;48.732;10.266;2023-03-07T16:11:49;7.07;;;6.17;;
20593;SDS011;10455;48.732;10.266;2023-03-07T16:16:53;6.77;;;5.40;;
20593;SDS011;10455;48.732;10.266;2023-03-07T16:21:59;8.97;;;6.27;;
20593;SDS011;10455;48.732;10.266;2023-03-07T16:27:01;6.20;;;5.60;;
20593;SDS011;10455;48.732;10.266;2023-03-07T16:32:04;6.07;;;5.33;;
20593;SDS011;10455;48.732;10.266;2023-03-07T16:37:09;6.33;;;5.73;;
20593;SDS011;10455;48.732;10.266;2023-03-07T16:42:12;7.23;;;6.10;;
20593;SDS011;10455;48.732;10.266;2023-03-07T16:47:20;6.50;;;5.80;;
20593;SDS011;10455;48.732;10.266;2023-03-07T16:52:22;6.90;;;6.20;;
20593;SDS011;10455;48.732;10.266;2023-03-07T16:57:24;7.50;;;6.50;;
20593;SDS011;10455;48.732;10.266;2023-03-07T17:02:28;6.97;;;6.00;;
20593;SDS011;10455;48.732;10.266;2023-03-07T17:07:29;8.90;;;6.07;;
20593;SDS011;10455;48.732;10.266;2023-03-07T17:12:31;8.60;;;6.63;;
20593;SDS011;10455;48.732;10.266;2023-03-07T17:17:35;9.33;;;6.87;;
20593;SDS011;10455;48.732;10.266;2023-03-07T17:22:37;10.80;;;6.80;;
20593;SDS011;10455;48.732;10.266;2023-03-07T17:27:39;14.50;;;11.10;;
20593;SDS011;10455;48.732;10.266;2023-03-07T17:32:46;35.80;;;19.73;;
20593;SDS011;10455;48.732;10.266;2023-03-07T17:37:49;7.63;;;6.70;;
20593;SDS011;10455;48.732;10.266;2023-03-07T17:42:52;11.80;;;9.10;;
20593;SDS011;10455;48.732;10.266;2023-03-07T17:47:57;10.20;;;6.90;;
20593;SDS011;10455;48.732;10.266;2023-03-07T17:52:59;10.33;;;7.27;;
20593;SDS011;10455;48.732;10.266;2023-03-07T17:58:01;9.03;;;6.80;;
20593;SDS011;10455;48.732;10.266;2023-03-07T18:03:04;7.27;;;6.30;;
20593;SDS011;10455;48.732;10.266;2023-03-07T18:08:06;11.37;;;8.47;;
20593;SDS011;10455;48.732;10.266;2023-03-07T18:13:09;13.60;;;9.83;;
20593;SDS011;10455;48.732;10.266;2023-03-07T18:18:12;37.57;;;22.17;;
20593;SDS011;10455;48.732;10.266;2023-03-07T18:23:14;12.67;;;9.53;;
20593;SDS011;10455;48.732;10.266;2023-03-07T18:28:16;12.93;;;9.70;;
20593;SDS011;10455;48.732;10.266;2023-03-07T18:33:19;14.97;;;10.43;;
20593;SDS011;10455;48.732;10.266;2023-03-07T18:38:21;13.90;;;9.17;;
20593;SDS011;10455;48.732;10.266;2023-03-07T18:43:23;10.13;;;7.40;;
20593;SDS011;10455;48.732;10.266;2023-03-07T18:48:27;10.03;;;7.13;;
20593;SDS011;10455;48.732;10.266;2023-03-07T18:53:29;8.43;;;7.00;;
20593;SDS011;10455;48.732;10.266;2023-03-07T18:58:31;9.87;;;7.10;;
20593;SDS011;10455;48.732;10.266;2023-03-07T19:03:34;9.80;;;7.43;;
20593;SDS011;10455;48.732;10.266;2023-03-07T19:08:36;14.73;;;10.60;;
20593;SDS011;10455;48.732;10.266;2023-03-07T19:13:38;44.03;;;28.70;;
20593;SDS011;10455;48.732;10.266;2023-03-07T19:18:43;9.27;;;7.60;;
20593;SDS011;10455;48.732;10.266;2023-03-07T19:23:45;8.93;;;7.27;;
20593;SDS011;10455;48.732;10.266;2023-03-07T19:28:48;9.73;;;7.47;;
20593;SDS011;10455;48.732;10.266;2023-03-07T19:33:52;8.90;;;7.07;;
20593;SDS011;10455;48.732;10.266;2023-03-07T19:38:55;10.03;;;7.20;;
20593;SDS011;10455;48.732;10.266;2023-03-07T19:44:00;10.10;;;7.30;;
20593;SDS011;10455;48.732;10.266;2023-03-07T19:49:06;11.03;;;7.70;;
20593;SDS011;10455;48.732;10.266;2023-03-07T19:54:09;9.20;;;7.53;;
20593;SDS011;10455;48.732;10.266;2023-03-07T19:59:13;8.87;;;7.93;;
20593;SDS011;10455;48.732;10.266;2023-03-07T20:04:16;8.20;;;7.40;;
20593;SDS011;10455;48.732;10.266;2023-03-07T20:09:18;9.47;;;7.37;;
20593;SDS011;10455;48.732;10.266;2023-03-07T20:14:22;11.23;;;8.03;;
20593;SDS011;10455;48.732;10.266;2023-03-07T20:19:25;15.90;;;9.83;;
20593;SDS011;10455;48.732;10.266;2023-03-07T20:24:27;17.93;;;9.53;;
20593;SDS011;10455;48.732;10.266;2023-03-07T20:29:28;11.90;;;8.57;;
20593;SDS011;10455;48.732;10.266;2023-03-07T20:34:32;11.77;;;8.33;;
20593;SDS011;10455;48.732;10.266;2023-03-07T20:39:35;9.93;;;8.03;;
20593;SDS011;10455;48.732;10.266;2023-03-07T20:44:37;10.13;;;7.93;;
20593;SDS011;10455;48.732;10.266;2023-03-07T20:49:41;12.23;;;9.10;;
20593;SDS011;10455;48.732;10.266;2023-03-07T20:54:43;11.30;;;7.87;;
20593;SDS011;10455;48.732;10.266;2023-03-07T20:59:44;18.17;;;12.87;;
20593;SDS011;10455;48.732;10.266;2023-03-07T21:04:48;13.13;;;9.03;;
20593;SDS011;10455;48.732;10.266;2023-03-07T21:09:49;13.83;;;9.37;;
20593;SDS011;10455;48.732;10.266;2023-03-07T21:14:51;12.67;;;9.07;;
20593;SDS011;10455;48.732;10.266;2023-03-07T21:19:55;11.33;;;9.50;;
20593;SDS011;10455;48.732;10.266;2023-03-07T21:24:56;8.87;;;7.73;;
20593;SDS011;10455;48.732;10.266;2023-03-07T21:29:58;12.03;;;9.30;;
20593;SDS011;10455;48.732;10.266;2023-03-07T21:35:02;11.03;;;9.00;;
20593;SDS011;10455;48.732;10.266;2023-03-07T21:40:04;12.80;;;9.17;;
20593;SDS011;10455;48.732;10.266;2023-03-07T21:45:07;12.87;;;9.27;;
20593;SDS011;10455;48.732;10.266;2023-03-07T21:50:12;11.43;;;9.43;;
20593;SDS011;10455;48.732;10.266;2023-03-07T21:55:14;14.67;;;9.60;;
20593;SDS011;10455;48.732;10.266;2023-03-07T22:00:17;10.70;;;8.37;;
20593;SDS011;10455;48.732;10.266;2023-03-07T22:05:21;13.67;;;9.20;;
20593;SDS011;10455;48.732;10.266;2023-03-07T22:10:22;13.07;;;11.37;;
20593;SDS011;10455;48.732;10.266;2023-03-07T22:15:25;11.37;;;8.67;;
20593;SDS011;10455;48.732;10.266;2023-03-07T22:20:28;9.33;;;8.40;;
20593;SDS011;10455;48.732;10.266;2023-03-07T22:25:30;11.00;;;8.47;;
20593;SDS011;10455;48.732;10.266;2023-03-07T22:30:34;9.03;;;7.73;;
20593;SDS011;10455;48.732;10.266;2023-03-07T22:35:37;10.53;;;8.03;;
20593;SDS011;10455;48.732;10.266;2023-03-07T22:40:39;9.10;;;7.50;;
20593;SDS011;10455;48.732;10.266;2023-03-07T22:45:45;9.13;;;7.23;;
20593;SDS011;10455;48.732;10.266;2023-03-07T22:50:49;9.47;;;7.00;;
20593;SDS011;10455;48.732;10.266;2023-03-07T22:55:51;10.90;;;7.50;;
20593;SDS011;10455;48.732;10.266;2023-03-07T23:00:53;9.43;;;7.60;;
20593;SDS011;10455;48.732;10.266;2023-03-07T23:05:59;11.83;;;8.30;;
20593;SDS011;10455;48.732;10.266;2023-03-07T23:11:01;8.57;;;7.30;;
20593;SDS011;10455;48.732;10.266;2023-03-07T23:16:04;13.13;;;7.87;;
20593;SDS011;10455;48.732;10.266;2023-03-07T23:21:10;10.93;;;8.00;;
20593;SDS011;10455;48.732;10.266;2023-03-07T23:26:15;9.30;;;7.23;;
20593;SDS011;10455;48.732;10.266;2023-03-07T23:31:19;9.60;;;7.20;;
20593;SDS011;10455;48.732;10.266;2023-03-07T23:36:24;11.43;;;7.30;;
20593;SDS011;10455;48.732;10.266;2023-03-07T23:41:27;9.83;;;8.23;;
20593;SDS011;10455;48.732;10.266;2023-03-07T23:46:29;8.30;;;7.20;;
20593;SDS011;10455;48.732;10.266;2023-03-07T23:51:33;10.43;;;7.73;;
20593;SDS011;10455;48.732;10.266;2023-03-07T23:56:35;9.00;;;7.63;;
